Meridian, MS (39303)

10:04 AM CDT on October 02, 2014 (GMT -0500)
3.2 NW Meridian (Pine Springs Rd.) | Change Station
CLOSE
Current Station
Personal Weather Station
Location: Meridian, MS
Elevation: 328 ft
Nearby Weather Stations

Elev 328 ft 32.42 °N, 88.75 °W | Updated 4 minutes ago

Overcast
Overcast
77.8 °F
Feels Like 80 °F
N
6.0
Wind Variable Wind from SSW
Gusts 14.0 mph

Today
High -- | Low -- °F
--% Chance of Precip.
Yesterday
High -- | Low -- °F
Precip. -- in
6:49 AM 6:38 PM
First Quarter, 59% visible
Pressure 30.01 in
Visibility 10.0 miles
Clouds Mostly Cloudy 1300 ft
Heat Index 80 °F
Dew Point 76 °F
Humidity 94%
Rainfall 0.00 in
Snow Depth Not available.
UV 2 out of 12
Pollen 6.80 out of 12
Air Quality Not available.
Flu Activity Not available.
METAR KMEI 021458Z 19008KT 10SM BKN013 26/22 A3002 RMK AO2 SLP162 T02560222 51007

More Conditions Fewer Conditions

Pressure 30.01 in
Visibility 10.0 miles
Clouds Mostly Cloudy 1300 ft
Heat Index 80 °F
Dew Point 76 °F
Humidity 94%
Rainfall 0.00 in
Snow Depth Not available.
UV 2 out of 12
Pollen 6.80 out of 12
Air Quality Not available.
Flu Activity Not available.
METAR KMEI 021458Z 19008KT 10SM BKN013 26/22 A3002 RMK AO2 SLP162 T02560222 51007

More Conditions Fewer Conditions

10-Day Weather Forecast

Almanac

Astronomy

Oct. 02, 2014 Rise Set
Actual Time 6:49 AM CDT 6:38 PM CDT
Civil Twilight 6:25 AM CDT 7:02 PM CDT
Nautical Twilight 5:56 AM CDT 7:31 PM CDT
Astronomical Twilight 5:27 AM CDT 7:59 PM CDT
Moon 2:27 PM CDT 12:24 AM CDT
Length of Visible Light 12h 37m
Length of Day
11h 48m
Tomorrow will be 1m 57s shorter.
First Quarter, 59% of the Moon is Illuminated
Today
First Quarter
Oct 8
Full
Oct 15
Last Quarter
Oct 23
New
Oct 30
First Quarter

Today's Extremes

State Highs State Lows

Community

WunderPhotos

Upload Photos

1,758,255 photos uploaded!

WunderBlogs® & News

By Dr. Jeff Masters
Director of Meteorology, Weather Underground
By Kari Strenfel
Meteorologist, Weather Underground
By Christopher C. Burt
Weather Historian, Weather Underground
October 2, 2014
October 2, 2014
October 2, 2014

Nearby

Snow Depth

Station Depth Elevation
No new snow has been reported.

Earthquake Activity

City Distance Mag. Time & Date
No recent earthquake activity has been reported nearby.
Minimum magnitude displayed is 2.5.

Coastal Water Temperatures

Place Temperature
No Stations Reporting

Nearby Weather Stations